createdAt,value
2023-01-28T00:02:45.493Z,1198.4347826086957
2023-01-28T00:09:08.674Z,1276.7658862876253
2023-01-28T00:15:30.317Z,1268.1571906354516
2023-01-28T00:21:52.898Z,1162.675585284281
2023-01-28T00:32:31.479Z,1088.638795986622
2023-01-28T00:41:22.768Z,1004.9799331103679
2023-01-28T00:47:45.023Z,1036.9264214046823
2023-01-28T00:55:45.776Z,1066.9464882943143
2023-01-28T01:03:53.324Z,1108.715719063545
2023-01-28T01:10:27.488Z,1076.7391304347825
2023-01-28T01:16:54.377Z,1038.3311036789298
2023-01-28T01:23:19.636Z,977.8394648829432
2023-01-28T01:31:45.952Z,1074.752508361204
2023-01-28T01:38:10.244Z,1093.5752508361204
2023-01-28T01:44:34.785Z,1508.7591973244148
2023-01-28T01:53:54.251Z,873.0903010033445
2023-01-28T02:00:17.442Z,869.5484949832776
2023-01-28T02:12:08.251Z,909.0301003344482
2023-01-28T02:18:32.662Z,869.3779264214047
2023-01-28T02:24:55.152Z,828.2909698996656
2023-01-28T02:39:13.837Z,886.4347826086956
2023-01-28T02:47:15.237Z,982.6555183946489
2023-01-28T02:53:36.668Z,857.0769230769231
2023-01-28T03:00:00.139Z,929.1070234113712
2023-01-28T03:08:54.669Z,925.876254180602
2023-01-28T03:15:17.784Z,981.3010033444816
2023-01-28T03:21:40.822Z,1023.7023411371238
2023-01-28T03:28:04.926Z,1065.0301003344482
2023-01-28T03:42:37.742Z,1124.0167224080267
2023-01-28T03:49:00.013Z,1122.3010033444816
2023-01-28T03:55:23.837Z,1191.8729096989966
2023-01-28T04:03:48.107Z,1311.4515050167224
2023-01-28T04:10:12.498Z,1338.2508361204013
2023-01-28T04:16:35.717Z,1444.324414715719
2023-01-28T04:22:57.067Z,1584.2809364548496
2023-01-28T04:29:21.088Z,1938.8628762541805
2023-01-28T04:35:43.081Z,2149.454849498328
2023-01-28T04:42:05.816Z,2189.247491638796
2023-01-28T04:48:28.630Z,2237.096989966555
2023-01-28T04:54:52.155Z,2328.0602006688964
2023-01-28T05:04:15.561Z,2565.4816053511704
2023-01-28T05:11:29.318Z,2747.1471571906354
2023-01-28T05:18:59.447Z,2277.511705685619
2023-01-28T05:25:23.095Z,2613.6020066889632
2023-01-28T05:31:45.551Z,3163.6053511705686
2023-01-28T05:38:10.328Z,3242.849498327759
2023-01-28T05:44:32.431Z,3347.8695652173915
2023-01-28T06:05:23.756Z,3615.923076923077
2023-01-28T06:17:05.147Z,3688.1739130434785
2023-01-28T06:23:29.639Z,3720.6521739130435
2023-01-28T06:29:53.666Z,3795.672240802676
2023-01-28T06:36:17.555Z,3855.521739130435
2023-01-28T06:55:39.586Z,3990.752508361204
2023-01-28T07:02:01.673Z,3980.789297658863
2023-01-28T07:08:24.605Z,4000.9966555183946
2023-01-28T07:14:46.517Z,3973.344481605351
2023-01-28T07:25:28.546Z,4205.127090301004
2023-01-28T07:31:53.969Z,4238.277591973244
2023-01-28T07:39:21.575Z,4033.5652173913045
2023-01-28T07:50:44.928Z,4157.8996655518395
2023-01-28T07:57:11.389Z,3990.4916387959865
2023-01-28T08:09:33.864Z,4166.458193979933
2023-01-28T08:20:49.979Z,4003.725752508361
2023-01-28T08:35:31.515Z,4055.839464882943
2023-01-28T08:41:57.166Z,4105.163879598662
2023-01-28T08:55:40.312Z,4398.933110367893
2023-01-28T09:02:06.811Z,4659.110367892977
2023-01-28T09:08:32.823Z,4883.588628762542
2023-01-28T09:14:57.786Z,4492.4046822742475
2023-01-28T09:24:39.909Z,4404.0
2023-01-28T09:31:04.692Z,4396.304347826087
2023-01-28T09:39:30.720Z,4397.408026755853
2023-01-28T09:45:57.416Z,4452.612040133779
2023-01-28T09:52:24.624Z,4130.7692307692305
2023-01-28T09:58:49.380Z,4551.591973244147
2023-01-28T10:05:15.891Z,4108.80602006689
2023-01-28T10:11:40.917Z,3828.6421404682274
2023-01-28T10:18:16.519Z,3817.4448160535117
2023-01-28T10:24:41.900Z,3836.277591973244
2023-01-28T10:32:30.587Z,4437.602006688963
2023-01-28T10:39:28.063Z,4556.408026755853
2023-01-28T10:51:26.284Z,6325.09364548495
2023-01-28T10:57:52.500Z,3361.545150501672
2023-01-28T11:04:16.942Z,3324.8227424749166
2023-01-28T11:10:42.567Z,3320.488294314381
2023-01-28T11:17:05.944Z,3284.076923076923
2023-01-28T11:23:27.547Z,2919.2709030100336
2023-01-28T11:34:20.114Z,2957.3779264214045
2023-01-28T11:40:43.336Z,3044.56856187291
2023-01-28T11:47:06.021Z,2993.28762541806
2023-01-28T11:53:31.737Z,2906.879598662207
2023-01-28T12:05:29.559Z,2824.926421404682
2023-01-28T12:11:55.353Z,3205.2541806020067
2023-01-28T12:22:57.098Z,2982.8929765886287
2023-01-28T12:40:46.485Z,2590.304347826087
2023-01-28T12:58:27.259Z,2532.2909698996655
2023-01-28T13:04:52.208Z,3020.56856187291
2023-01-28T13:11:18.031Z,3671.367892976589
2023-01-28T13:23:49.929Z,4430.13712374582
2023-01-28T13:30:15.913Z,4413.260869565217
2023-01-28T13:45:05.118Z,3487.9966555183946
2023-01-28T13:51:29.503Z,2797.9665551839466
2023-01-28T13:57:54.847Z,2675.3377926421404
2023-01-28T14:09:03.582Z,2727.4414715719063
2023-01-28T14:16:22.140Z,2709.160535117057
2023-01-28T14:22:47.344Z,2507.6989966555184
2023-01-28T14:30:25.002Z,2664.8127090301005
2023-01-28T14:36:52.220Z,2947.5652173913045
2023-01-28T14:43:17.773Z,3411.4113712374583
2023-01-28T14:52:37.142Z,2820.2608695652175
2023-01-28T15:00:55.769Z,2647.6354515050166
2023-01-28T15:07:21.678Z,2779.304347826087
2023-01-28T15:17:26.018Z,3338.5484949832776
2023-01-28T15:26:13.921Z,3561.913043478261
2023-01-28T15:32:39.222Z,3020.418060200669
2023-01-28T15:54:26.505Z,2701.0434782608695
2023-01-28T16:00:48.291Z,2680.2441471571906
2023-01-28T16:13:15.821Z,2730.0702341137126
2023-01-28T16:23:30.688Z,2732.066889632107
2023-01-28T16:29:52.773Z,3131.4983277591973
2023-01-28T16:36:15.238Z,2904.240802675585
2023-01-28T16:42:37.327Z,3073.2240802675587
2023-01-28T16:48:58.844Z,3448.3244147157193
2023-01-28T17:02:52.034Z,3535.936454849498
2023-01-28T17:09:15.350Z,3159.903010033445
2023-01-28T17:24:49.127Z,3091.6755852842807
2023-01-28T17:31:14.105Z,3225.0
2023-01-28T17:40:46.420Z,3436.2842809364547
2023-01-28T17:47:08.272Z,3271.09364548495
2023-01-28T17:53:59.929Z,3187.9966555183946
2023-01-28T18:00:22.013Z,3977.0267558528426
2023-01-28T18:06:44.973Z,3858.6120401337794
2023-01-28T18:13:08.234Z,3973.0836120401336
2023-01-28T18:19:51.688Z,3027.6923076923076
2023-01-28T18:26:15.278Z,2947.3745819397996
2023-01-28T18:39:29.193Z,2851.42474916388
2023-01-28T18:45:50.959Z,4653.441471571907
2023-01-28T18:52:14.746Z,3748.183946488294
2023-01-28T19:06:52.642Z,3000.4515050167224
2023-01-28T19:17:43.617Z,3651.2207357859534
2023-01-28T19:34:35.725Z,2904.0802675585282
2023-01-28T19:40:57.824Z,2839.334448160535
2023-01-28T19:47:21.690Z,4478.829431438127
2023-01-28T20:04:33.073Z,6783.471571906354
2023-01-28T20:10:56.076Z,5148.491638795987
2023-01-28T20:17:18.759Z,5364.872909698996
2023-01-28T20:23:43.014Z,6742.173913043478
2023-01-28T20:30:47.789Z,5215.454849498327
2023-01-28T20:37:10.752Z,7281.180602006689
2023-01-28T20:43:33.299Z,3402.0200668896323
2023-01-28T20:49:57.195Z,3174.71237458194
2023-01-28T20:56:28.730Z,3321.3010033444816
2023-01-28T21:11:22.991Z,4270.163879598662
2023-01-28T21:21:04.549Z,4666.57525083612
2023-01-28T21:27:33.129Z,5463.030100334448
2023-01-28T21:33:55.747Z,5483.719063545151
2023-01-28T21:40:56.752Z,3711.4113712374583
2023-01-28T21:48:01.075Z,2944.42474916388
2023-01-28T21:54:47.782Z,2680.8361204013377
2023-01-28T22:07:40.421Z,2773.6454849498327
2023-01-28T22:14:08.484Z,2618.0066889632108
2023-01-28T22:20:31.738Z,2586.4414715719063
2023-01-28T22:26:54.564Z,2683.42474916388
2023-01-28T22:33:18.569Z,2681.5785953177256
2023-01-28T22:39:41.838Z,2630.247491638796
2023-01-28T22:50:11.887Z,2576.7190635451507
2023-01-28T22:56:35.498Z,2635.1638795986623
2023-01-28T23:02:59.322Z,2507.1872909698995
2023-01-28T23:09:24.874Z,2567.207357859532
2023-01-28T23:15:48.020Z,2599.866220735786
2023-01-28T23:22:10.702Z,2530.735785953177
2023-01-28T23:33:39.361Z,2630.046822742475
2023-01-28T23:40:02.250Z,2621.367892976589
2023-01-28T23:46:38.587Z,2700.030100334448
2023-01-28T23:53:06.069Z,2727.8428093645484
2023-01-28T23:59:29.440Z,2740.5551839464883
